CGATX CYXU-CYZR
Flight info
| Callsign | CGATX |
|---|---|
| Flight time | N/A |
| Altitude | 16000 |
| Route | DCT |
| Aircraft | E55P/M-BDGRSWXY/LB2 |
Departure
| Time | 2026-04-25 00:38 |
|---|---|
| Airport | London International Airport (CYXU) |
Arrival
| Time | N/A |
|---|---|
| Airport | Chris Hadfield Airport (CYZR) |
| Time | Latitude | Longitude | Altitude | Speed | Heading |
|---|---|---|---|---|---|
| 2026-04-25 00:22 | 43.03273 | -81.15457 | 916 ft | 0 kts | 43° |
| 2026-04-25 00:32 | 43.03274 | -81.15456 | 916 ft | 0 kts | 43° |
| 2026-04-25 00:32 | 43.03278 | -81.15452 | 916 ft | 1 kts | 39° |
| 2026-04-25 00:33 | 43.03305 | -81.15436 | 916 ft | 5 kts | 17° |
| 2026-04-25 00:33 | 43.03352 | -81.15425 | 916 ft | 8 kts | 4° |
| 2026-04-25 00:33 | 43.03422 | -81.15404 | 916 ft | 11 kts | 7° |
| 2026-04-25 00:33 | 43.03504 | -81.15449 | 916 ft | 15 kts | 319° |
| 2026-04-25 00:34 | 43.03590 | -81.15554 | 916 ft | 18 kts | 319° |
| 2026-04-25 00:34 | 43.03691 | -81.15675 | 916 ft | 17 kts | 316° |
| 2026-04-25 00:34 | 43.03692 | -81.15809 | 916 ft | 14 kts | 257° |
| 2026-04-25 00:34 | 43.03673 | -81.15942 | 916 ft | 14 kts | 261° |
| 2026-04-25 00:35 | 43.03655 | -81.16074 | 916 ft | 13 kts | 258° |
| 2026-04-25 00:35 | 43.03636 | -81.16202 | 916 ft | 13 kts | 258° |
| 2026-04-25 00:35 | 43.03674 | -81.16270 | 916 ft | 9 kts | 353° |
| 2026-04-25 00:35 | 43.03717 | -81.16280 | 916 ft | 0 kts | 349° |
| 2026-04-25 00:36 | 43.03718 | -81.16280 | 916 ft | 0 kts | 349° |
| 2026-04-25 00:37 | 43.03721 | -81.16281 | 916 ft | 2 kts | 350° |
| 2026-04-25 00:37 | 43.03753 | -81.16289 | 916 ft | 7 kts | 351° |
| 2026-04-25 00:37 | 43.03814 | -81.16278 | 916 ft | 9 kts | 59° |
| 2026-04-25 00:37 | 43.03825 | -81.16200 | 916 ft | 25 kts | 79° |
| 2026-04-25 00:38 | 43.03904 | -81.15630 | 916 ft | 94 kts | 79° |
| 2026-04-25 00:38 | 43.04055 | -81.14519 | 1035 ft | 132 kts | 82° |
| 2026-04-25 00:38 | 43.04254 | -81.13340 | 1740 ft | 129 kts | 78° |
| 2026-04-25 00:38 | 43.04496 | -81.12062 | 2020 ft | 161 kts | 79° |
| 2026-04-25 00:39 | 43.04779 | -81.10461 | 2412 ft | 183 kts | 79° |
| 2026-04-25 00:39 | 43.05266 | -81.08833 | 3036 ft | 196 kts | 49° |
| 2026-04-25 00:39 | 43.06504 | -81.08021 | 3656 ft | 208 kts | 1° |
| 2026-04-25 00:39 | 43.07830 | -81.08659 | 4383 ft | 205 kts | 313° |
| 2026-04-25 00:40 | 43.08427 | -81.10337 | 4929 ft | 210 kts | 273° |
| 2026-04-25 00:40 | 43.08411 | -81.12474 | 5096 ft | 239 kts | 268° |
| 2026-04-25 00:40 | 43.08347 | -81.14794 | 5837 ft | 243 kts | 264° |
| 2026-04-25 00:40 | 43.08218 | -81.17049 | 6826 ft | 235 kts | 264° |
| 2026-04-25 00:41 | 43.08074 | -81.19245 | 7584 ft | 237 kts | 264° |
| 2026-04-25 00:41 | 43.07923 | -81.21500 | 8305 ft | 241 kts | 264° |
| 2026-04-25 00:41 | 43.07767 | -81.23810 | 9019 ft | 244 kts | 264° |
| 2026-04-25 00:41 | 43.07610 | -81.26096 | 9664 ft | 248 kts | 264° |
| 2026-04-25 00:42 | 43.07444 | -81.28543 | 9942 ft | 269 kts | 264° |
| 2026-04-25 00:42 | 43.07262 | -81.31216 | 10010 ft | 296 kts | 265° |
| 2026-04-25 00:42 | 43.07063 | -81.34119 | 9997 ft | 323 kts | 265° |
| 2026-04-25 00:42 | 43.06846 | -81.37268 | 9988 ft | 344 kts | 265° |
| 2026-04-25 00:43 | 43.06615 | -81.40576 | 9977 ft | 348 kts | 264° |
| 2026-04-25 00:43 | 43.06391 | -81.43813 | 9943 ft | 336 kts | 264° |
| 2026-04-25 00:43 | 43.06171 | -81.46925 | 9938 ft | 324 kts | 264° |
| 2026-04-25 00:43 | 43.05958 | -81.49972 | 9942 ft | 315 kts | 264° |
| 2026-04-25 00:44 | 43.05754 | -81.52885 | 9954 ft | 306 kts | 264° |
| 2026-04-25 00:44 | 43.05548 | -81.55772 | 9937 ft | 300 kts | 264° |
| 2026-04-25 00:44 | 43.05349 | -81.58588 | 9939 ft | 294 kts | 264° |
| 2026-04-25 00:44 | 43.05151 | -81.61346 | 9944 ft | 288 kts | 264° |
| 2026-04-25 00:45 | 43.04958 | -81.64059 | 9949 ft | 283 kts | 264° |
| 2026-04-25 00:45 | 43.04770 | -81.66660 | 9973 ft | 278 kts | 264° |
| 2026-04-25 00:45 | 43.04561 | -81.69250 | 9969 ft | 275 kts | 262° |
| 2026-04-25 00:45 | 43.04781 | -81.71824 | 9997 ft | 273 kts | 287° |
| 2026-04-25 00:46 | 43.05281 | -81.74297 | 9990 ft | 271 kts | 282° |
| 2026-04-25 00:46 | 43.05757 | -81.76791 | 9984 ft | 269 kts | 283° |
| 2026-04-25 00:46 | 43.06699 | -81.81756 | 9669 ft | 276 kts | 283° |
| 2026-04-25 00:47 | 43.07184 | -81.84312 | 9363 ft | 281 kts | 283° |
| 2026-04-25 00:47 | 43.07669 | -81.86874 | 9031 ft | 276 kts | 283° |
| 2026-04-25 00:47 | 43.08143 | -81.89379 | 8715 ft | 268 kts | 283° |
| 2026-04-25 00:47 | 43.08603 | -81.91805 | 8398 ft | 260 kts | 283° |
| 2026-04-25 00:48 | 43.09053 | -81.94192 | 8106 ft | 254 kts | 283° |
| 2026-04-25 00:48 | 43.09488 | -81.96504 | 7835 ft | 251 kts | 283° |
| 2026-04-25 00:48 | 43.09922 | -81.98807 | 7550 ft | 248 kts | 282° |
| 2026-04-25 00:48 | 43.10343 | -82.01052 | 7273 ft | 245 kts | 282° |
| 2026-04-25 00:49 | 43.10767 | -82.03299 | 7001 ft | 242 kts | 282° |
| 2026-04-25 00:49 | 43.11179 | -82.05505 | 6748 ft | 240 kts | 282° |
| 2026-04-25 00:49 | 43.11590 | -82.07706 | 6480 ft | 237 kts | 283° |
| 2026-04-25 00:49 | 43.11997 | -82.09888 | 6225 ft | 235 kts | 281° |
| 2026-04-25 00:50 | 43.12395 | -82.12013 | 5972 ft | 231 kts | 282° |
| 2026-04-25 00:50 | 43.12796 | -82.14145 | 5725 ft | 228 kts | 282° |
| 2026-04-25 00:50 | 43.13184 | -82.16232 | 5477 ft | 226 kts | 282° |
| 2026-04-25 00:50 | 43.13573 | -82.18319 | 5220 ft | 224 kts | 283° |
| 2026-04-25 00:51 | 43.13767 | -82.19366 | 5107 ft | 222 kts | 281° |